Time;durP1;ratioP1;P1;durP2;ratioP2;P2;SDS_P1;SDS_P2;PMS_P1;PMS_P2;Temp;Humidity;BMP_temperature;BMP_pressure;BME280_temperature;BME280_humidity;BME280_pressure;Samples;Min_cycle;Max_cycle;Signal;HPM_P1;HPM_P2
2024/03/29 00:00:42;;;;;;;1.15;0.80;;;7.70;70.70;;;;;;5048792;28;20496;-62
2024/03/29 00:03:09;;;;;;;1.40;0.90;;;7.70;70.80;;;;;;5055578;28;20523;-63
2024/03/29 00:05:35;;;;;;;0.90;0.75;;;7.70;70.90;;;;;;5039510;28;20033;-61
2024/03/29 00:08:01;;;;;;;1.17;0.80;;;7.70;70.70;;;;;;5043477;28;20037;-64
2024/03/29 00:10:27;;;;;;;1.42;0.70;;;7.80;70.80;;;;;;5045755;28;20097;-61
2024/03/29 00:12:52;;;;;;;1.00;0.60;;;7.80;70.80;;;;;;5044518;28;20044;-61
2024/03/29 00:15:18;;;;;;;1.13;0.50;;;7.80;70.90;;;;;;5043964;28;20037;-63
2024/03/29 00:17:43;;;;;;;0.77;0.70;;;7.80;70.80;;;;;;5040873;28;20033;-62
2024/03/29 00:20:09;;;;;;;1.00;0.60;;;7.80;70.60;;;;;;5045081;28;20064;-61
2024/03/29 00:22:35;;;;;;;1.10;0.60;;;7.80;70.60;;;;;;5048476;28;20040;-62
2024/03/29 00:25:01;;;;;;;1.00;0.68;;;7.80;70.70;;;;;;5050533;28;20086;-62
2024/03/29 00:27:28;;;;;;;0.50;0.50;;;7.70;70.70;;;;;;5050543;28;20060;-62
2024/03/29 00:29:54;;;;;;;0.60;0.60;;;7.70;70.70;;;;;;5044071;28;20471;-63
2024/03/29 00:32:23;;;;;;;1.25;0.60;;;7.70;70.70;;;;;;5043618;28;20034;-61
2024/03/29 00:34:50;;;;;;;2.10;0.63;;;7.70;70.70;;;;;;5044981;28;20030;-62
2024/03/29 00:37:16;;;;;;;0.98;0.70;;;7.70;70.50;;;;;;5046201;28;20067;-61
2024/03/29 00:39:41;;;;;;;0.90;0.60;;;7.70;70.40;;;;;;5047653;28;20060;-63
2024/03/29 00:42:15;;;;;;;0.90;0.80;;;7.70;70.30;;;;;;5039882;28;20036;-60
2024/03/29 00:44:41;;;;;;;2.88;0.90;;;7.70;70.20;;;;;;5042753;28;20531;-62
2024/03/29 00:47:06;;;;;;;1.63;1.17;;;7.60;70.00;;;;;;5043011;28;20033;-62
2024/03/29 00:49:32;;;;;;;1.80;1.27;;;7.50;70.10;;;;;;5042663;28;20588;-60
2024/03/29 00:51:57;;;;;;;2.20;1.67;;;7.40;70.30;;;;;;5046138;28;20036;-61
2024/03/29 00:54:23;;;;;;;2.80;1.65;;;7.30;70.50;;;;;;5044948;28;20087;-62
2024/03/29 00:56:49;;;;;;;3.53;1.58;;;7.30;70.70;;;;;;5044692;28;20045;-60
2024/03/29 00:59:15;;;;;;;2.33;1.65;;;7.20;70.70;;;;;;5050096;28;20501;-61
2024/03/29 01:01:41;;;;;;;1.70;1.60;;;7.10;70.60;;;;;;5048542;28;20041;-62
2024/03/29 01:04:07;;;;;;;1.80;1.55;;;7.00;70.70;;;;;;5047841;28;20025;-61
2024/03/29 01:06:33;;;;;;;2.85;1.80;;;6.90;70.90;;;;;;5055138;28;20048;-63
2024/03/29 01:08:59;;;;;;;2.70;1.70;;;6.80;71.00;;;;;;5050914;28;20408;-64
2024/03/29 01:11:25;;;;;;;2.78;1.75;;;6.80;71.10;;;;;;5055122;28;20036;-62
2024/03/29 01:13:50;;;;;;;2.25;1.80;;;6.70;71.10;;;;;;5052014;28;20033;-61
2024/03/29 01:16:16;;;;;;;2.17;1.40;;;6.70;71.20;;;;;;5052642;28;20501;-60
2024/03/29 01:18:43;;;;;;;1.67;1.33;;;6.60;71.10;;;;;;5050517;28;20428;-62
2024/03/29 01:21:09;;;;;;;1.52;1.42;;;6.50;71.20;;;;;;5051465;28;20025;-61
2024/03/29 01:23:35;;;;;;;2.55;1.60;;;6.40;71.30;;;;;;5052420;28;20037;-61
2024/03/29 01:26:01;;;;;;;2.75;2.00;;;6.40;71.70;;;;;;5050880;28;20112;-63
2024/03/29 01:28:26;;;;;;;3.10;2.08;;;6.30;71.70;;;;;;5052794;28;20037;-62
2024/03/29 01:30:53;;;;;;;3.08;2.20;;;6.20;71.90;;;;;;5053030;28;20125;-62
2024/03/29 01:33:18;;;;;;;2.58;2.10;;;6.20;72.20;;;;;;5048257;28;20060;-62
2024/03/29 01:35:44;;;;;;;2.65;2.03;;;6.10;72.20;;;;;;5052609;28;20551;-63
2024/03/29 01:38:10;;;;;;;2.92;2.20;;;6.10;72.30;;;;;;5048301;28;20053;-62
2024/03/29 01:40:35;;;;;;;3.92;2.35;;;6.00;72.30;;;;;;5050383;28;20063;-63
2024/03/29 01:43:01;;;;;;;3.35;2.17;;;6.00;72.50;;;;;;5051253;28;20028;-63
2024/03/29 01:45:28;;;;;;;2.78;2.20;;;6.00;72.60;;;;;;5050947;28;20373;-61
2024/03/29 01:47:53;;;;;;;3.03;1.98;;;6.00;72.60;;;;;;5046225;28;20040;-63
2024/03/29 01:50:19;;;;;;;3.55;2.30;;;6.00;72.80;;;;;;5045874;28;20037;-63
2024/03/29 01:52:46;;;;;;;4.05;2.45;;;6.00;72.90;;;;;;5047859;28;20110;-61
2024/03/29 01:55:11;;;;;;;4.13;2.30;;;5.90;73.10;;;;;;5044205;28;20090;-61
2024/03/29 01:57:37;;;;;;;3.40;2.20;;;6.00;73.10;;;;;;5044418;28;20501;-63
2024/03/29 02:00:05;;;;;;;3.15;2.50;;;6.00;73.20;;;;;;5044557;28;20031;-62
2024/03/29 02:02:32;;;;;;;3.42;2.30;;;6.00;73.10;;;;;;5050235;28;20040;-61
2024/03/29 02:04:58;;;;;;;3.60;2.40;;;6.00;73.20;;;;;;5046583;28;20535;-61
2024/03/29 02:07:25;;;;;;;3.47;2.40;;;6.00;73.30;;;;;;5047816;28;20032;-62
2024/03/29 02:09:50;;;;;;;4.43;2.33;;;6.00;73.10;;;;;;5045671;28;20157;-62
2024/03/29 02:12:16;;;;;;;2.90;2.28;;;6.00;73.10;;;;;;5041578;28;20116;-63
2024/03/29 02:14:42;;;;;;;3.17;2.30;;;6.00;73.10;;;;;;5042348;28;20025;-62
2024/03/29 02:17:08;;;;;;;2.45;2.20;;;5.90;73.10;;;;;;5043729;28;20037;-62
2024/03/29 02:19:34;;;;;;;3.50;2.35;;;5.90;72.90;;;;;;5046836;28;21561;-63
2024/03/29 02:22:01;;;;;;;3.83;2.58;;;5.90;73.00;;;;;;5041480;28;20033;-63
2024/03/29 02:24:27;;;;;;;4.70;2.70;;;5.80;73.10;;;;;;5041102;28;20029;-63
2024/03/29 02:26:56;;;;;;;3.83;2.60;;;5.80;73.10;;;;;;5041241;28;20512;-63
2024/03/29 02:29:21;;;;;;;3.17;2.30;;;5.70;73.30;;;;;;5042928;28;20059;-62
2024/03/29 02:31:47;;;;;;;3.53;2.42;;;5.70;73.40;;;;;;5042782;28;20496;-62
2024/03/29 02:34:12;;;;;;;3.33;2.22;;;5.60;73.70;;;;;;5045559;28;20396;-63
2024/03/29 02:36:38;;;;;;;5.13;2.85;;;5.50;73.80;;;;;;5044721;28;20033;-63
2024/03/29 02:39:04;;;;;;;3.47;2.38;;;5.50;74.00;;;;;;5041872;28;20029;-59
2024/03/29 02:41:30;;;;;;;3.53;2.17;;;5.40;74.00;;;;;;5042266;28;20029;-63
2024/03/29 02:43:56;;;;;;;2.33;2.00;;;5.40;74.20;;;;;;5048528;28;20032;-62
2024/03/29 02:46:21;;;;;;;2.78;2.13;;;5.30;74.20;;;;;;5048116;28;20804;-63
2024/03/29 02:48:47;;;;;;;2.75;1.90;;;5.30;74.30;;;;;;5044408;28;20036;-62
2024/03/29 02:51:13;;;;;;;2.35;1.85;;;5.30;74.30;;;;;;5043977;28;20040;-63
2024/03/29 02:53:38;;;;;;;2.30;1.70;;;5.40;74.50;;;;;;5041630;28;20029;-61
2024/03/29 02:56:07;;;;;;;3.55;2.13;;;5.30;74.50;;;;;;5040617;28;20044;-63
2024/03/29 02:58:34;;;;;;;3.13;2.25;;;5.30;74.40;;;;;;5039645;28;20400;-62
2024/03/29 03:01:08;;;;;;;2.15;1.70;;;5.20;74.40;;;;;;5045247;28;20036;-62
2024/03/29 03:03:35;;;;;;;2.97;2.20;;;5.20;74.80;;;;;;5043175;28;20040;-63
2024/03/29 03:06:01;;;;;;;3.67;2.20;;;5.20;74.80;;;;;;5044760;28;20040;-63
2024/03/29 03:11:11;;;;;;;2.42;1.90;;;5.20;75.00;;;;;;5044350;28;20060;-62
2024/03/29 03:13:37;;;;;;;3.15;2.30;;;5.20;75.00;;;;;;5040983;28;20072;-63
2024/03/29 03:16:03;;;;;;;2.13;1.92;;;5.10;75.20;;;;;;5044972;28;20035;-62
2024/03/29 03:18:28;;;;;;;2.05;1.88;;;5.10;75.20;;;;;;5039975;28;20475;-63
2024/03/29 03:20:55;;;;;;;2.30;2.03;;;5.00;75.40;;;;;;5046733;28;20597;-62
2024/03/29 03:23:21;;;;;;;2.20;2.00;;;5.00;75.50;;;;;;5042682;28;20043;-61
2024/03/29 03:25:54;;;;;;;2.20;2.00;;;5.00;75.50;;;;;;5037711;28;20041;-61
2024/03/29 03:28:20;;;;;;;4.28;2.17;;;5.00;75.90;;;;;;5056641;28;20492;-60
2024/03/29 03:30:46;;;;;;;3.28;2.45;;;5.00;75.70;;;;;;5042805;28;20041;-62
2024/03/29 03:33:11;;;;;;;2.78;2.40;;;5.00;75.80;;;;;;5044135;28;20037;-62
2024/03/29 03:35:37;;;;;;;2.50;2.08;;;4.90;75.70;;;;;;5042735;28;20033;-62
2024/03/29 03:38:02;;;;;;;2.78;2.40;;;4.90;75.80;;;;;;5043742;28;20451;-62
2024/03/29 03:40:28;;;;;;;3.38;2.50;;;4.90;76.00;;;;;;5041042;28;20028;-62
2024/03/29 03:42:53;;;;;;;2.65;2.22;;;4.90;76.00;;;;;;5047379;28;20025;-60
2024/03/29 03:45:19;;;;;;;2.80;2.30;;;4.90;75.90;;;;;;5041440;28;20066;-62
2024/03/29 03:47:44;;;;;;;4.25;2.33;;;4.90;75.90;;;;;;5045892;28;20041;-62
2024/03/29 03:50:10;;;;;;;2.55;2.00;;;4.90;75.90;;;;;;5041889;28;20056;-62
2024/03/29 03:52:36;;;;;;;2.78;1.98;;;4.90;75.90;;;;;;5043723;28;20038;-61
2024/03/29 03:55:01;;;;;;;2.45;2.17;;;4.90;76.00;;;;;;5044363;28;20457;-61
2024/03/29 03:57:27;;;;;;;2.60;2.40;;;4.90;76.20;;;;;;5040754;28;20191;-61
2024/03/29 03:59:52;;;;;;;2.83;1.90;;;4.90;76.20;;;;;;5042735;28;20033;-62
2024/03/29 04:02:18;;;;;;;2.92;1.92;;;4.90;76.20;;;;;;5043988;28;20071;-63
2024/03/29 04:04:47;;;;;;;2.50;2.05;;;4.90;76.40;;;;;;5047264;28;20033;-62
2024/03/29 04:07:13;;;;;;;3.15;2.05;;;5.00;76.60;;;;;;5040189;28;20407;-62
2024/03/29 04:09:38;;;;;;;2.47;2.05;;;5.00;76.70;;;;;;5041447;28;20089;-62
2024/03/29 04:12:04;;;;;;;3.25;2.10;;;5.00;76.90;;;;;;5041973;28;20489;-62
2024/03/29 04:14:30;;;;;;;3.00;2.03;;;5.00;77.30;;;;;;5043032;28;20036;-60
2024/03/29 04:16:55;;;;;;;3.13;2.08;;;5.00;77.30;;;;;;5041209;28;20036;-62
2024/03/29 04:19:21;;;;;;;2.58;2.03;;;5.00;77.40;;;;;;5048959;28;20045;-61
2024/03/29 04:21:46;;;;;;;3.78;1.92;;;5.00;77.60;;;;;;5041994;28;20037;-62
2024/03/29 04:24:12;;;;;;;2.97;2.08;;;5.10;77.60;;;;;;5047746;28;20615;-62
2024/03/29 04:26:38;;;;;;;2.95;1.83;;;5.10;77.90;;;;;;5043863;28;20388;-61
2024/03/29 04:29:04;;;;;;;2.42;2.03;;;5.10;78.00;;;;;;5037671;28;20599;-62
2024/03/29 04:31:29;;;;;;;3.50;2.30;;;5.10;78.00;;;;;;5040171;28;20071;-61
2024/03/29 04:33:55;;;;;;;2.28;1.92;;;5.20;78.10;;;;;;5042211;28;20090;-62
2024/03/29 04:36:20;;;;;;;3.58;2.05;;;5.20;78.10;;;;;;5050481;28;20044;-62
2024/03/29 04:38:47;;;;;;;3.30;2.38;;;5.20;78.10;;;;;;5048617;28;20048;-62
2024/03/29 04:41:13;;;;;;;2.53;1.90;;;5.20;78.10;;;;;;5048106;28;20131;-62
2024/03/29 04:43:40;;;;;;;3.75;2.38;;;5.30;78.10;;;;;;5049845;28;20033;-62
2024/03/29 04:46:13;;;;;;;2.60;2.25;;;5.30;78.20;;;;;;5047829;28;20037;-61
2024/03/29 04:48:41;;;;;;;3.17;2.58;;;5.30;78.20;;;;;;5049515;28;20040;-63
2024/03/29 04:51:06;;;;;;;5.40;2.28;;;5.30;78.00;;;;;;5043037;28;20471;-62
2024/03/29 04:53:32;;;;;;;4.47;2.50;;;5.40;78.00;;;;;;5044909;28;20068;-62
2024/03/29 04:55:58;;;;;;;2.45;2.25;;;5.40;78.00;;;;;;5046060;28;20496;-62
2024/03/29 04:58:28;;;;;;;3.17;2.30;;;5.40;77.80;;;;;;5043221;28;20132;-60
2024/03/29 05:00:54;;;;;;;4.25;2.70;;;5.50;77.80;;;;;;5043272;28;20033;-62
2024/03/29 05:03:21;;;;;;;4.68;3.13;;;5.50;77.70;;;;;;5043012;28;20041;-61
2024/03/29 05:05:47;;;;;;;5.57;3.00;;;5.40;77.40;;;;;;5047059;28;20516;-62
2024/03/29 05:08:12;;;;;;;3.88;2.80;;;5.40;77.60;;;;;;5044334;28;20034;-62
2024/03/29 05:10:40;;;;;;;4.53;2.63;;;5.40;77.60;;;;;;5045826;28;20102;-61
2024/03/29 05:13:06;;;;;;;3.13;2.72;;;5.40;77.80;;;;;;5042466;28;20032;-62
2024/03/29 05:15:32;;;;;;;3.97;2.33;;;5.40;78.00;;;;;;5047247;28;20150;-62
2024/03/29 05:17:58;;;;;;;4.18;2.40;;;5.40;78.00;;;;;;5046154;28;20116;-62
2024/03/29 05:20:23;;;;;;;3.47;2.45;;;5.40;78.10;;;;;;5045788;28;20136;-62
2024/03/29 05:22:49;;;;;;;2.85;2.20;;;5.40;78.00;;;;;;5045706;28;20569;-61
2024/03/29 05:25:14;;;;;;;3.75;2.50;;;5.40;78.00;;;;;;5043403;28;20049;-62
2024/03/29 05:27:40;;;;;;;3.30;2.45;;;5.50;78.10;;;;;;5047614;28;20074;-62
2024/03/29 05:30:06;;;;;;;2.97;2.30;;;5.50;78.00;;;;;;5043508;28;20044;-63
2024/03/29 05:32:32;;;;;;;3.33;2.17;;;5.50;78.10;;;;;;5049032;28;20033;-62
2024/03/29 05:34:57;;;;;;;2.95;2.58;;;5.50;78.10;;;;;;5047110;28;20043;-63
2024/03/29 05:37:25;;;;;;;2.92;2.65;;;5.50;78.10;;;;;;5045777;28;20057;-63
2024/03/29 05:39:58;;;;;;;2.97;2.47;;;5.50;78.10;;;;;;5045684;28;20032;-63
2024/03/29 05:42:29;;;;;;;5.18;2.88;;;5.50;78.10;;;;;;5043522;28;20033;-61
2024/03/29 05:44:54;;;;;;;4.40;2.67;;;5.50;78.10;;;;;;5048563;28;20119;-62
2024/03/29 05:47:20;;;;;;;3.58;2.75;;;5.50;78.00;;;;;;5048668;28;20116;-62
2024/03/29 05:49:46;;;;;;;3.97;3.00;;;5.60;78.20;;;;;;5043747;28;20033;-62
2024/03/29 05:52:15;;;;;;;5.63;3.30;;;5.60;78.30;;;;;;5048425;28;20526;-61
2024/03/29 05:54:42;;;;;;;3.42;2.88;;;5.60;78.20;;;;;;5042604;28;20045;-62
2024/03/29 05:57:08;;;;;;;4.82;3.10;;;5.60;78.30;;;;;;5041792;28;20083;-60
2024/03/29 05:59:34;;;;;;;3.80;3.08;;;5.60;78.30;;;;;;5047895;28;20044;-62
2024/03/29 06:02:00;;;;;;;9.27;6.00;;;5.60;78.20;;;;;;5047252;28;20117;-62
2024/03/29 06:04:37;;;;;;;9.85;5.68;;;5.60;78.30;;;;;;5043140;28;20501;-62
2024/03/29 06:07:04;;;;;;;10.23;5.80;;;5.50;78.30;;;;;;5043878;28;20036;-62
2024/03/29 06:09:30;;;;;;;10.98;5.85;;;5.50;78.60;;;;;;5040769;28;20052;-62
2024/03/29 06:11:56;;;;;;;10.70;4.88;;;5.50;78.80;;;;;;5041291;28;20052;-62
2024/03/29 06:17:23;;;;;;;9.95;6.30;;;5.50;79.10;;;;;;5040959;28;20086;-61
2024/03/29 06:19:55;;;;;;;6.15;4.20;;;5.40;79.00;;;;;;5044147;28;20084;-62
2024/03/29 06:22:21;;;;;;;5.65;4.07;;;5.50;79.30;;;;;;5036837;28;20080;-63
2024/03/29 06:24:48;;;;;;;9.45;7.30;;;5.50;79.30;;;;;;5044604;28;20061;-62
2024/03/29 06:27:17;;;;;;;9.20;6.25;;;5.50;79.50;;;;;;5046105;28;20539;-63
2024/03/29 06:29:43;;;;;;;7.72;5.10;;;5.50;79.40;;;;;;5044687;28;20033;-63
2024/03/29 06:32:09;;;;;;;6.30;4.18;;;5.60;79.70;;;;;;5045367;28;20037;-62
2024/03/29 06:34:34;;;;;;;6.88;4.30;;;5.60;79.90;;;;;;5041553;28;20051;-62
2024/03/29 06:37:00;;;;;;;4.80;3.92;;;5.60;79.80;;;;;;5044368;28;20037;-62
2024/03/29 06:39:26;;;;;;;5.90;3.67;;;5.70;80.00;;;;;;5046483;28;20033;-62
2024/03/29 06:41:52;;;;;;;4.45;3.38;;;5.70;80.00;;;;;;5044574;28;20083;-62
2024/03/29 06:44:17;;;;;;;4.47;3.03;;;5.70;80.00;;;;;;5049680;28;20036;-60
2024/03/29 06:46:43;;;;;;;4.82;2.90;;;5.80;80.80;;;;;;5048900;28;20037;-61
2024/03/29 06:49:09;;;;;;;5.25;3.28;;;5.80;80.00;;;;;;5042459;28;20483;-61
2024/03/29 06:51:34;;;;;;;4.82;3.13;;;5.90;80.20;;;;;;5050230;28;20045;-58
2024/03/29 06:54:00;;;;;;;5.10;3.80;;;5.90;80.20;;;;;;5047701;28;20073;-61
2024/03/29 06:56:25;;;;;;;5.60;3.53;;;6.00;80.30;;;;;;5047020;28;20485;-60
2024/03/29 06:58:51;;;;;;;3.50;2.70;;;6.10;80.50;;;;;;5047228;28;20091;-62
2024/03/29 07:01:16;;;;;;;4.45;2.83;;;6.20;80.40;;;;;;5045028;28;20029;-62
2024/03/29 07:03:42;;;;;;;4.60;3.00;;;6.30;80.30;;;;;;5043445;28;20040;-62
2024/03/29 07:06:08;;;;;;;3.80;2.63;;;6.40;80.60;;;;;;5041471;28;20140;-61
2024/03/29 07:08:33;;;;;;;3.33;2.50;;;6.50;80.40;;;;;;5044922;28;20452;-60
2024/03/29 07:11:00;;;;;;;2.58;2.15;;;6.60;80.50;;;;;;5043588;28;20025;-62
2024/03/29 07:13:28;;;;;;;2.92;2.22;;;6.70;80.60;;;;;;5040610;28;20152;-60
2024/03/29 07:15:53;;;;;;;3.83;2.58;;;6.70;80.30;;;;;;5046796;28;20401;-59
2024/03/29 07:18:19;;;;;;;3.55;2.83;;;6.80;80.20;;;;;;5044770;28;20072;-60
2024/03/29 07:20:45;;;;;;;4.13;2.65;;;6.90;80.20;;;;;;5046323;28;20467;-62
2024/03/29 07:23:14;;;;;;;4.38;2.58;;;7.00;80.10;;;;;;5044626;28;20037;-60
2024/03/29 07:25:40;;;;;;;4.15;3.00;;;7.10;79.70;;;;;;5042986;28;20033;-62
2024/03/29 07:28:06;;;;;;;4.65;3.30;;;7.20;79.80;;;;;;5043539;28;20150;-60
2024/03/29 07:30:31;;;;;;;3.90;2.78;;;7.20;79.60;;;;;;5041272;28;20124;-61
2024/03/29 07:32:57;;;;;;;2.53;2.22;;;7.30;79.40;;;;;;5046095;28;20132;-61
2024/03/29 07:35:22;;;;;;;3.90;2.63;;;7.40;79.30;;;;;;5047307;28;20374;-61
2024/03/29 07:37:50;;;;;;;3.78;2.33;;;7.50;79.20;;;;;;5037144;28;20036;-63
2024/03/29 07:40:16;;;;;;;3.20;2.58;;;7.50;79.10;;;;;;5042407;28;20041;-62
2024/03/29 07:42:42;;;;;;;2.80;2.10;;;7.60;79.10;;;;;;5040254;28;20107;-62
2024/03/29 07:45:08;;;;;;;1.90;1.80;;;7.70;79.10;;;;;;5043110;28;20489;-60
2024/03/29 07:47:33;;;;;;;1.60;1.50;;;7.70;78.80;;;;;;5047305;28;20029;-60
2024/03/29 07:49:59;;;;;;;1.75;1.40;;;7.70;78.50;;;;;;5043583;28;20222;-62
2024/03/29 07:52:25;;;;;;;1.50;1.40;;;7.90;78.20;;;;;;5041630;28;20045;-61
2024/03/29 07:54:50;;;;;;;1.70;1.60;;;7.90;77.80;;;;;;5044435;28;20081;-62
2024/03/29 07:57:17;;;;;;;3.92;1.48;;;7.90;77.50;;;;;;5040053;28;20033;-62
2024/03/29 07:59:43;;;;;;;2.30;1.48;;;8.00;77.50;;;;;;5044233;28;20489;-62
2024/03/29 08:02:08;;;;;;;1.83;1.50;;;8.00;77.50;;;;;;5044703;28;20040;-61
2024/03/29 08:04:34;;;;;;;2.90;2.20;;;8.10;77.70;;;;;;5042586;28;20029;-61
2024/03/29 08:07:00;;;;;;;2.85;2.00;;;8.10;77.90;;;;;;5046384;28;20059;-62
2024/03/29 08:09:25;;;;;;;3.08;2.22;;;8.20;77.90;;;;;;5043503;28;20064;-62
2024/03/29 08:11:51;;;;;;;3.17;2.13;;;8.30;77.60;;;;;;5042675;28;20515;-60
2024/03/29 08:14:17;;;;;;;2.42;2.15;;;8.40;77.40;;;;;;5045986;28;20124;-59
2024/03/29 08:16:42;;;;;;;4.35;2.28;;;8.40;77.40;;;;;;5047991;28;20447;-61
2024/03/29 08:19:08;;;;;;;2.15;1.70;;;8.50;77.30;;;;;;5045721;28;20528;-60
2024/03/29 08:21:34;;;;;;;2.38;2.17;;;8.60;77.50;;;;;;5045883;28;20030;-60
2024/03/29 08:24:00;;;;;;;3.00;2.00;;;8.60;77.50;;;;;;5050150;28;20025;-62
2024/03/29 08:26:28;;;;;;;2.55;1.98;;;8.70;77.50;;;;;;5044338;28;20037;-62
2024/03/29 08:28:54;;;;;;;2.05;1.70;;;8.70;77.30;;;;;;5045814;28;20029;-60
2024/03/29 08:31:20;;;;;;;2.20;2.00;;;8.80;77.20;;;;;;5045409;28;21332;-60
2024/03/29 08:33:45;;;;;;;3.47;1.70;;;8.90;77.40;;;;;;5050216;28;20052;-61
2024/03/29 08:36:11;;;;;;;3.05;1.92;;;9.00;77.30;;;;;;5042420;28;20055;-62
2024/03/29 08:38:41;;;;;;;1.88;1.77;;;9.10;77.10;;;;;;5049737;28;20471;-63
2024/03/29 08:41:07;;;;;;;3.97;1.80;;;9.20;77.10;;;;;;5042248;28;20028;-62
2024/03/29 08:43:33;;;;;;;2.08;1.83;;;9.30;76.80;;;;;;5051632;28;20039;-62
2024/03/29 08:45:59;;;;;;;2.28;2.08;;;9.40;76.90;;;;;;5045783;28;20041;-62
2024/03/29 08:48:26;;;;;;;1.90;1.60;;;9.60;77.00;;;;;;5045015;28;20103;-61
2024/03/29 08:50:52;;;;;;;1.88;1.77;;;9.70;76.60;;;;;;5049793;28;20043;-62
2024/03/29 08:53:18;;;;;;;2.05;1.90;;;9.80;76.60;;;;;;5045556;28;20036;-61
2024/03/29 08:55:46;;;;;;;3.67;1.95;;;9.80;76.30;;;;;;5050240;28;20083;-62
2024/03/29 08:58:12;;;;;;;2.22;2.03;;;9.90;75.90;;;;;;5039495;28;20052;-63
2024/03/29 09:00:37;;;;;;;2.97;2.22;;;10.00;76.00;;;;;;5047073;28;20028;-60
2024/03/29 09:03:03;;;;;;;2.30;2.10;;;10.20;76.50;;;;;;5045764;28;20068;-61
2024/03/29 09:05:29;;;;;;;3.03;2.00;;;10.30;76.30;;;;;;5049214;28;20052;-62
2024/03/29 09:07:55;;;;;;;3.30;2.15;;;10.40;76.10;;;;;;5047336;28;20403;-62
2024/03/29 09:10:23;;;;;;;2.25;2.05;;;10.50;76.30;;;;;;5045300;28;20117;-62
2024/03/29 09:12:48;;;;;;;2.20;2.00;;;10.60;76.30;;;;;;5050215;28;20118;-61
2024/03/29 09:15:15;;;;;;;1.80;1.70;;;10.70;76.00;;;;;;5047539;28;20079;-63
2024/03/29 09:17:41;;;;;;;2.58;1.95;;;10.90;76.10;;;;;;5043859;28;20568;-62
2024/03/29 09:20:08;;;;;;;1.77;1.67;;;11.00;75.90;;;;;;5044083;28;20393;-62
2024/03/29 09:22:34;;;;;;;1.70;1.45;;;11.10;75.80;;;;;;5063368;28;20033;-63
2024/03/29 09:24:59;;;;;;;2.35;1.63;;;11.30;75.80;;;;;;5045377;28;20106;-63
2024/03/29 09:27:27;;;;;;;1.85;1.45;;;11.40;74.90;;;;;;5044024;28;20515;-62
2024/03/29 09:29:52;;;;;;;1.58;1.48;;;11.60;73.90;;;;;;5046669;28;20041;-62
2024/03/29 09:32:20;;;;;;;1.70;1.48;;;11.70;73.70;;;;;;5044530;28;20420;-63
2024/03/29 09:34:45;;;;;;;2.05;1.50;;;11.80;74.40;;;;;;5044191;28;20037;-63
2024/03/29 09:37:11;;;;;;;2.30;1.63;;;12.00;74.50;;;;;;5045424;28;22277;-61
2024/03/29 09:39:37;;;;;;;3.92;1.55;;;12.10;74.20;;;;;;5049529;28;20029;-63
2024/03/29 09:42:03;;;;;;;1.40;1.30;;;12.20;73.80;;;;;;5047775;28;20397;-62
2024/03/29 09:44:32;;;;;;;2.55;1.38;;;12.30;73.70;;;;;;5052619;28;20036;-61
2024/03/29 09:47:03;;;;;;;3.95;1.40;;;12.40;73.20;;;;;;5040718;28;20041;-63
2024/03/29 09:49:32;;;;;;;1.35;1.25;;;12.60;73.10;;;;;;5045962;28;20041;-62
2024/03/29 09:52:01;;;;;;;1.15;1.10;;;12.60;72.80;;;;;;5047715;28;20124;-62
2024/03/29 09:54:28;;;;;;;1.60;1.40;;;12.70;72.00;;;;;;5045418;28;20056;-62
2024/03/29 09:56:57;;;;;;;1.50;1.40;;;12.80;71.80;;;;;;5041458;28;20040;-60
2024/03/29 09:59:23;;;;;;;1.67;1.35;;;12.90;72.00;;;;;;5046670;28;20040;-61
2024/03/29 10:01:50;;;;;;;1.80;1.38;;;12.90;71.70;;;;;;5043505;28;20041;-63
2024/03/29 10:04:17;;;;;;;1.52;1.40;;;13.00;71.50;;;;;;5043786;28;20048;-62
2024/03/29 10:06:49;;;;;;;1.30;1.20;;;13.10;71.50;;;;;;5045519;28;20033;-61
2024/03/29 10:09:17;;;;;;;2.05;1.30;;;13.10;71.20;;;;;;5042244;28;20068;-62
2024/03/29 10:11:43;;;;;;;1.20;1.10;;;13.20;71.20;;;;;;5046912;28;20021;-61
2024/03/29 10:14:08;;;;;;;1.40;1.30;;;13.20;71.10;;;;;;5048348;28;20040;-63
2024/03/29 10:16:34;;;;;;;1.77;1.65;;;13.30;71.10;;;;;;5044964;28;20028;-61
2024/03/29 10:18:59;;;;;;;1.40;1.30;;;13.40;71.00;;;;;;5043522;28;20616;-62
2024/03/29 10:21:28;;;;;;;1.52;1.40;;;13.40;71.20;;;;;;5047029;28;20044;-62
2024/03/29 10:23:54;;;;;;;1.50;1.40;;;13.50;71.30;;;;;;5044959;28;20071;-61
2024/03/29 10:26:21;;;;;;;1.42;1.33;;;13.50;71.40;;;;;;5047299;28;20465;-61
2024/03/29 10:28:47;;;;;;;1.65;1.52;;;13.60;71.30;;;;;;5042209;28;20097;-61
2024/03/29 10:31:14;;;;;;;1.50;1.35;;;13.70;71.40;;;;;;5045670;28;20041;-60
2024/03/29 10:33:42;;;;;;;1.92;1.48;;;13.70;71.40;;;;;;5044515;28;20034;-61
2024/03/29 10:36:09;;;;;;;1.50;1.40;;;13.80;71.40;;;;;;5045818;28;20369;-60
2024/03/29 10:38:36;;;;;;;1.90;1.33;;;13.80;71.40;;;;;;5043223;28;20044;-60
2024/03/29 10:41:03;;;;;;;2.20;1.55;;;13.90;71.50;;;;;;5044858;28;20056;-62
2024/03/29 10:43:29;;;;;;;1.48;1.30;;;14.00;71.30;;;;;;5043440;28;20037;-61
2024/03/29 10:45:59;;;;;;;1.42;1.20;;;14.00;71.30;;;;;;5042644;28;20060;-61
2024/03/29 10:48:27;;;;;;;2.00;1.50;;;14.10;71.30;;;;;;5044878;28;20033;-60
2024/03/29 10:50:54;;;;;;;1.70;1.40;;;14.20;72.20;;;;;;5043686;28;20500;-62
2024/03/29 10:53:22;;;;;;;1.42;1.10;;;14.20;71.40;;;;;;5045597;28;20067;-59
2024/03/29 10:55:50;;;;;;;1.58;1.17;;;14.30;71.30;;;;;;5044509;28;20040;-62
2024/03/29 10:58:19;;;;;;;2.33;1.13;;;14.40;71.10;;;;;;5045993;28;20029;-62
2024/03/29 11:00:49;;;;;;;1.27;1.13;;;14.50;71.80;;;;;;5040300;28;20129;-62
2024/03/29 11:03:37;;;;;;;1.83;1.15;;;14.60;70.70;;;;;;5043487;28;20033;-59
2024/03/29 11:06:05;;;;;;;1.05;0.95;;;14.70;70.60;;;;;;5044855;28;20223;-60
2024/03/29 11:08:38;;;;;;;1.38;1.00;;;14.70;70.60;;;;;;5041719;28;20040;-61
2024/03/29 11:11:05;;;;;;;1.88;1.00;;;14.80;70.10;;;;;;5050071;28;20040;-61
2024/03/29 11:13:39;;;;;;;1.15;1.08;;;14.90;69.90;;;;;;5043851;28;20038;-61
2024/03/29 11:16:05;;;;;;;2.10;1.10;;;15.00;69.70;;;;;;5047021;28;20087;-61
2024/03/29 11:18:32;;;;;;;1.25;1.00;;;15.10;69.80;;;;;;5045520;28;20037;-62
2024/03/29 11:20:59;;;;;;;1.20;1.00;;;15.20;69.50;;;;;;5046273;28;20422;-61
2024/03/29 11:23:27;;;;;;;1.05;0.95;;;15.20;69.20;;;;;;5043360;28;20033;-62
2024/03/29 11:25:54;;;;;;;1.33;1.00;;;15.30;68.80;;;;;;5047050;28;20029;-62
2024/03/29 11:28:31;;;;;;;1.50;1.10;;;15.40;68.60;;;;;;5044687;28;20044;-62
2024/03/29 11:31:05;;;;;;;1.00;0.90;;;15.40;68.00;;;;;;5045899;28;20047;-62
2024/03/29 11:33:36;;;;;;;0.90;0.73;;;15.50;68.10;;;;;;5046025;28;20051;-62
2024/03/29 11:36:17;;;;;;;2.13;1.15;;;15.60;68.30;;;;;;5045733;28;20025;-62
2024/03/29 11:38:45;;;;;;;1.48;1.00;;;15.70;67.80;;;;;;5045160;28;20041;-61
2024/03/29 11:41:16;;;;;;;1.05;0.90;;;15.70;68.10;;;;;;5040741;28;20025;-61
2024/03/29 11:43:43;;;;;;;1.10;0.90;;;15.80;68.10;;;;;;5046357;28;20033;-62
2024/03/29 11:46:13;;;;;;;1.13;0.93;;;15.80;68.20;;;;;;5047224;28;20065;-62
2024/03/29 11:48:40;;;;;;;1.02;0.90;;;15.90;68.00;;;;;;5047107;28;20040;-61
2024/03/29 11:51:09;;;;;;;2.00;0.90;;;16.00;68.30;;;;;;5048569;28;20065;-61
2024/03/29 11:53:35;;;;;;;2.10;0.93;;;16.00;68.10;;;;;;5047755;28;20033;-62
2024/03/29 11:56:03;;;;;;;0.93;0.80;;;16.10;68.20;;;;;;5049061;28;20447;-62
2024/03/29 11:58:31;;;;;;;1.10;1.00;;;16.20;68.00;;;;;;5047562;28;20124;-62
2024/03/29 12:00:58;;;;;;;1.20;0.90;;;16.30;68.30;;;;;;5047795;28;20029;-62
2024/03/29 12:03:26;;;;;;;2.13;1.00;;;16.30;68.30;;;;;;5049052;28;20037;-62
2024/03/29 12:05:58;;;;;;;1.42;0.90;;;16.40;68.30;;;;;;5047986;28;20099;-62
2024/03/29 12:08:24;;;;;;;1.98;1.10;;;16.40;67.80;;;;;;5048922;28;20032;-62
2024/03/29 12:10:50;;;;;;;1.50;1.10;;;16.60;67.50;;;;;;5049506;28;20470;-62
2024/03/29 12:13:17;;;;;;;1.05;0.93;;;16.50;66.50;;;;;;5047417;28;20064;-62
2024/03/29 12:15:43;;;;;;;1.25;1.15;;;16.60;66.40;;;;;;5048922;28;20100;-62
2024/03/29 12:18:09;;;;;;;1.63;1.40;;;16.60;66.80;;;;;;5045686;28;20029;-62
2024/03/29 12:20:38;;;;;;;1.30;1.20;;;16.60;67.00;;;;;;5046679;28;20033;-62
2024/03/29 12:23:06;;;;;;;1.17;1.00;;;16.60;67.60;;;;;;5044153;28;20033;-62
2024/03/29 12:25:34;;;;;;;1.23;1.13;;;16.60;67.90;;;;;;5047252;28;20041;-61
2024/03/29 12:28:00;;;;;;;1.52;1.10;;;16.60;68.10;;;;;;5044066;28;20124;-61
2024/03/29 12:30:26;;;;;;;2.42;1.20;;;16.70;68.50;;;;;;5039991;28;20036;-62
2024/03/29 12:33:11;;;;;;;1.40;1.30;;;16.70;68.30;;;;;;5043526;28;20494;-62
2024/03/29 12:35:36;;;;;;;1.40;1.08;;;16.70;66.40;;;;;;5039370;28;20029;-62
2024/03/29 12:38:04;;;;;;;1.42;1.33;;;16.70;66.70;;;;;;5043529;28;20040;-62
2024/03/29 12:40:39;;;;;;;2.90;1.52;;;16.70;67.00;;;;;;5047004;28;20025;-61
2024/03/29 12:43:08;;;;;;;2.65;1.35;;;16.70;66.70;;;;;;5042390;28;20124;-63
2024/03/29 12:45:38;;;;;;;1.65;1.20;;;16.70;67.60;;;;;;5045884;28;20416;-62
2024/03/29 12:48:11;;;;;;;1.30;1.15;;;16.60;67.80;;;;;;5047155;28;20068;-62
2024/03/29 12:50:37;;;;;;;1.40;1.30;;;16.60;68.20;;;;;;5047200;28;20045;-60
2024/03/29 12:53:06;;;;;;;1.27;0.90;;;16.70;68.60;;;;;;5044160;28;20040;-62
2024/03/29 12:55:35;;;;;;;1.40;1.15;;;16.70;68.10;;;;;;5046164;28;20072;-61